Main page
METAR-TAF:

METAR-TAF

Airports :

Auckland, New Zealand

Auckland Airport

latitude: 37-01S, longitude: 174-48E, elevation: 7 m

Current weather observation

The report was made 32 minutes ago, at 02:00 UTC
Wind 14 kt from the Southwest
Temperature 18°C
Humidity 68%
Pressure 1018 hPa
Visibility 10 km or more

METAR: NZAA 220200Z AUTO 23014KT 9999 NCD 18/12 Q1018 NOSIG

Time: 14:32 (02:32 UTC)

Forecast

The report was made 3 hours and 25 minutes ago, at 23:07 UTC
Forecast valid from 22 at 00 UTC to 23 at 00 UTC
Wind 12 kt from the Southwest
Visibility 10 km or more
Few clouds at a height of 3000 ft
Scattered clouds at a height of 5000 ft
light rain showers
From 22 at 0700 UTC
Wind 2 kt from variable directions
Visibility 10 km or more
Few clouds at a height of 4000 ft

TAF: NZAA 212307Z 2200/2300 22012KT 9999 -SHRA FEW030 SCT050 FM220700 VRB02KT 9999 FEW040

Weather observations and forecasts of more than 4000 airports (METAR and TAF reports).

The available stations are represented by yellow and red dots on the map.

Hover mouse over dot to see the name of the station.

Then click to see weather observations and forecasts.

To change the map : click on the green buttons with a black cross to zoom in, on the green button with a dash to zoom out, or on the green arrows for adjacent maps.


METAR-TAF: